Time;durP1;ratioP1;P1;durP2;ratioP2;P2;SDS_P1;SDS_P2;PMS_P1;PMS_P2;Temp;Humidity;BMP_temperature;BMP_pressure;BME280_temperature;BME280_humidity;BME280_pressure;Samples;Min_cycle;Max_cycle;Signal;HPM_P1;HPM_P2
2023/06/08 00:00:33;;;;;;;6.87;4.20;;;24.70;50.50;;;;;;5065112;28;20204;-45
2023/06/08 00:03:07;;;;;;;8.20;4.53;;;24.60;50.40;;;;;;5071355;28;20194;-46
2023/06/08 00:05:43;;;;;;;7.87;4.63;;;24.60;50.30;;;;;;5069342;28;20210;-46
2023/06/08 00:08:13;;;;;;;7.80;4.27;;;24.70;50.40;;;;;;5073438;28;20205;-46
2023/06/08 00:10:43;;;;;;;9.03;4.33;;;24.60;50.40;;;;;;5052007;28;20194;-46
2023/06/08 00:13:16;;;;;;;8.27;4.23;;;24.60;50.40;;;;;;5068656;28;20210;-45
2023/06/08 00:15:47;;;;;;;5.30;3.93;;;24.60;50.60;;;;;;5071379;28;20205;-45
2023/06/08 00:18:19;;;;;;;6.57;4.33;;;24.60;50.90;;;;;;5067574;28;20249;-46
2023/06/08 00:20:49;;;;;;;7.13;4.00;;;24.50;50.30;;;;;;5066230;28;20229;-45
2023/06/08 00:23:28;;;;;;;7.97;4.57;;;24.50;50.50;;;;;;5070683;28;20242;-46
2023/06/08 00:25:58;;;;;;;8.00;4.53;;;24.50;50.70;;;;;;5066807;28;20218;-45
2023/06/08 00:28:25;;;;;;;8.73;4.33;;;24.50;50.40;;;;;;5052846;28;20194;-46
2023/06/08 00:30:56;;;;;;;6.50;4.40;;;24.50;50.60;;;;;;5070728;28;20202;-46
2023/06/08 00:33:26;;;;;;;7.23;4.30;;;24.50;50.60;;;;;;5070505;28;20205;-46
2023/06/08 00:35:58;;;;;;;6.50;4.07;;;24.50;50.30;;;;;;5064887;28;20524;-45
2023/06/08 00:38:34;;;;;;;6.13;4.13;;;24.50;50.60;;;;;;5061238;28;20225;-46
2023/06/08 00:41:06;;;;;;;8.87;4.30;;;24.50;50.60;;;;;;5069718;28;20504;-45
2023/06/08 00:43:38;;;;;;;6.83;4.00;;;24.40;50.50;;;;;;5052802;28;20271;-46
2023/06/08 00:46:10;;;;;;;7.13;4.47;;;24.40;50.30;;;;;;5061904;28;20718;-46
2023/06/08 00:48:38;;;;;;;7.27;4.43;;;24.30;50.10;;;;;;5066709;28;20198;-45
2023/06/08 00:51:08;;;;;;;9.27;4.30;;;24.30;50.40;;;;;;5068230;28;20574;-46
2023/06/08 00:53:41;;;;;;;9.70;5.23;;;24.30;49.90;;;;;;5040357;28;20186;-45
2023/06/08 00:56:16;;;;;;;9.37;4.70;;;24.20;50.00;;;;;;5041322;28;20225;-46
2023/06/08 00:58:56;;;;;;;7.20;4.33;;;24.20;50.40;;;;;;5070034;28;20198;-46
2023/06/08 01:01:29;;;;;;;6.87;3.80;;;24.20;50.30;;;;;;5069526;28;20224;-46
2023/06/08 01:04:06;;;;;;;9.47;4.50;;;24.20;50.60;;;;;;5054108;28;20208;-46
2023/06/08 01:07:01;;;;;;;8.07;4.33;;;24.20;50.50;;;;;;5063219;28;20205;-46
2023/06/08 01:10:10;;;;;;;6.90;4.43;;;24.20;50.20;;;;;;5070475;28;20195;-46
2023/06/08 01:13:06;;;;;;;8.30;4.40;;;24.20;50.70;;;;;;5062854;28;20221;-44
2023/06/08 01:15:42;;;;;;;7.83;4.10;;;24.20;50.30;;;;;;5066206;28;20209;-45
2023/06/08 01:18:18;;;;;;;7.07;4.20;;;24.20;50.40;;;;;;5053566;28;20197;-46
2023/06/08 01:21:14;;;;;;;8.83;4.20;;;24.20;50.40;;;;;;5056412;28;20190;-45
2023/06/08 01:24:14;;;;;;;7.10;4.50;;;24.20;50.60;;;;;;5069486;28;20264;-46
2023/06/08 01:26:45;;;;;;;6.37;4.40;;;24.20;51.20;;;;;;5021096;28;20248;-46
2023/06/08 01:29:25;;;;;;;7.17;4.47;;;24.20;50.70;;;;;;5054051;28;20555;-45
2023/06/08 01:31:56;;;;;;;6.60;4.30;;;24.10;50.30;;;;;;5070504;28;20549;-45
2023/06/08 01:34:27;;;;;;;9.30;4.30;;;24.10;50.70;;;;;;5067881;28;20198;-45
2023/06/08 01:37:32;;;;;;;9.20;4.70;;;24.10;50.60;;;;;;5066783;28;20248;-45
2023/06/08 01:40:25;;;;;;;8.50;4.40;;;24.10;50.60;;;;;;5069999;28;20204;-46
2023/06/08 01:42:53;;;;;;;5.37;4.10;;;24.10;50.60;;;;;;5068510;28;20268;-46
2023/06/08 01:45:35;;;;;;;8.33;4.10;;;24.10;50.70;;;;;;5050846;28;20190;-46
2023/06/08 01:48:07;;;;;;;7.40;4.70;;;24.10;50.60;;;;;;5070022;28;20206;-46
2023/06/08 01:50:39;;;;;;;9.27;4.40;;;24.10;50.50;;;;;;5046636;28;20262;-46
2023/06/08 01:53:22;;;;;;;9.03;4.40;;;24.00;50.40;;;;;;5050397;28;20218;-46
2023/06/08 01:55:55;;;;;;;7.57;4.07;;;24.00;50.40;;;;;;5061111;28;20220;-46
2023/06/08 01:58:23;;;;;;;7.43;4.70;;;24.00;50.50;;;;;;5048784;28;20205;-46
2023/06/08 02:00:52;;;;;;;10.10;4.80;;;24.00;50.70;;;;;;5068265;28;20202;-45
2023/06/08 02:03:24;;;;;;;6.90;4.20;;;24.00;50.60;;;;;;5052683;28;20193;-49
2023/06/08 02:05:56;;;;;;;7.37;4.17;;;24.10;50.70;;;;;;5073833;28;20231;-45
2023/06/08 02:08:28;;;;;;;7.60;4.17;;;24.00;50.60;;;;;;5066436;28;20205;-46
2023/06/08 02:10:58;;;;;;;8.80;4.80;;;24.00;50.60;;;;;;5071703;28;20208;-46
2023/06/08 02:13:27;;;;;;;8.80;4.57;;;24.00;50.50;;;;;;5067714;28;20682;-46
2023/06/08 02:15:58;;;;;;;7.77;4.60;;;23.90;50.50;;;;;;5069893;28;20206;-45
2023/06/08 02:18:28;;;;;;;10.20;4.43;;;23.90;50.40;;;;;;5067651;28;20202;-46
2023/06/08 02:20:58;;;;;;;5.40;3.80;;;23.90;50.80;;;;;;5054551;28;20204;-46
2023/06/08 02:23:26;;;;;;;8.63;4.37;;;23.90;50.80;;;;;;5051620;28;20225;-46
2023/06/08 02:25:57;;;;;;;8.70;4.30;;;23.90;50.60;;;;;;5065364;28;20691;-45
2023/06/08 02:28:28;;;;;;;7.00;4.17;;;23.90;50.60;;;;;;5068553;28;20532;-45
2023/06/08 02:30:57;;;;;;;5.30;3.53;;;23.90;50.70;;;;;;5068613;28;20624;-46
2023/06/08 02:33:25;;;;;;;6.90;3.97;;;23.90;50.80;;;;;;5050656;28;20190;-45
2023/06/08 02:35:55;;;;;;;9.80;4.10;;;23.90;50.80;;;;;;5069284;28;20224;-45
2023/06/08 02:38:27;;;;;;;6.57;3.80;;;23.90;50.80;;;;;;5048129;28;20263;-45
2023/06/08 02:40:56;;;;;;;8.17;3.83;;;23.90;50.80;;;;;;5062671;28;20186;-45
2023/06/08 02:43:25;;;;;;;7.77;3.57;;;23.90;50.80;;;;;;5066682;28;20244;-45
2023/06/08 02:45:56;;;;;;;7.53;4.23;;;23.90;51.00;;;;;;5069128;28;20217;-45
2023/06/08 02:48:24;;;;;;;4.80;3.83;;;23.90;50.90;;;;;;5070010;28;20676;-45
2023/06/08 02:50:55;;;;;;;6.23;3.33;;;23.90;50.80;;;;;;5065842;28;20206;-46
2023/06/08 02:53:26;;;;;;;5.93;4.00;;;23.90;50.80;;;;;;5068602;28;20205;-44
2023/06/08 02:56:03;;;;;;;5.77;3.77;;;23.90;50.90;;;;;;5060534;28;20200;-45
2023/06/08 02:58:37;;;;;;;6.07;4.10;;;23.90;50.80;;;;;;5066530;28;20550;-45
2023/06/08 03:01:14;;;;;;;5.93;4.20;;;23.90;50.70;;;;;;5066744;28;20245;-45
2023/06/08 03:03:51;;;;;;;9.13;4.20;;;23.90;50.50;;;;;;5073994;28;20198;-45
2023/06/08 03:06:21;;;;;;;8.80;3.93;;;23.90;50.60;;;;;;5066465;28;20217;-45
2023/06/08 03:08:53;;;;;;;5.97;3.87;;;23.90;50.80;;;;;;5069726;28;20812;-46
2023/06/08 03:11:24;;;;;;;5.27;3.50;;;23.90;50.80;;;;;;5068840;28;20194;-45
2023/06/08 03:13:54;;;;;;;5.37;4.20;;;23.90;50.80;;;;;;5066891;28;20552;-45
2023/06/08 03:16:26;;;;;;;6.40;3.77;;;23.90;50.70;;;;;;5068667;28;20217;-45
2023/06/08 03:18:56;;;;;;;6.73;3.87;;;23.90;50.80;;;;;;5071578;28;20616;-45
2023/06/08 03:21:28;;;;;;;7.60;3.80;;;23.90;50.80;;;;;;5068890;28;20205;-45
2023/06/08 03:23:56;;;;;;;7.20;4.30;;;23.90;50.80;;;;;;5069907;28;20244;-45
2023/06/08 03:26:27;;;;;;;7.20;4.10;;;23.90;50.60;;;;;;5067390;28;20314;-45
2023/06/08 03:28:57;;;;;;;7.23;4.33;;;23.90;50.60;;;;;;5069775;28;20649;-44
2023/06/08 03:31:29;;;;;;;7.10;4.20;;;23.90;50.50;;;;;;5070570;28;20186;-45
2023/06/08 03:34:00;;;;;;;6.47;4.20;;;23.90;50.60;;;;;;5068401;28;20205;-45
2023/06/08 03:36:33;;;;;;;5.73;3.70;;;23.90;50.70;;;;;;5068030;28;20232;-45
2023/06/08 03:39:04;;;;;;;5.90;3.93;;;23.90;50.70;;;;;;5068448;28;20607;-45
2023/06/08 03:41:35;;;;;;;8.87;3.97;;;23.90;50.70;;;;;;5068564;28;20290;-45
2023/06/08 03:44:05;;;;;;;6.07;3.90;;;23.90;50.70;;;;;;5067409;28;20228;-45
2023/06/08 03:46:36;;;;;;;7.33;4.17;;;23.90;50.80;;;;;;5073462;28;20246;-45
2023/06/08 03:49:19;;;;;;;6.97;4.00;;;23.90;50.60;;;;;;5066470;28;20305;-45
2023/06/08 03:51:51;;;;;;;4.57;3.40;;;23.80;50.70;;;;;;5067759;28;20198;-45
2023/06/08 03:54:22;;;;;;;7.00;3.70;;;23.80;50.70;;;;;;5051869;28;20194;-45
2023/06/08 03:56:54;;;;;;;4.80;3.50;;;23.80;50.70;;;;;;5067428;28;20197;-45
2023/06/08 03:59:25;;;;;;;4.97;4.00;;;23.90;50.80;;;;;;5068446;28;20193;-45
2023/06/08 04:01:55;;;;;;;6.60;3.87;;;23.90;50.70;;;;;;5066004;28;20206;-45
2023/06/08 04:04:28;;;;;;;6.70;3.73;;;23.80;50.60;;;;;;5057016;28;20203;-45
2023/06/08 04:07:00;;;;;;;6.97;4.47;;;23.80;50.70;;;;;;5068065;28;20217;-45
2023/06/08 04:09:30;;;;;;;6.87;4.00;;;23.80;50.40;;;;;;5069454;28;20206;-45
2023/06/08 04:11:59;;;;;;;9.50;5.00;;;23.80;50.50;;;;;;5068568;28;20197;-45
2023/06/08 04:14:30;;;;;;;7.20;4.50;;;23.80;50.40;;;;;;5064544;28;20228;-45
2023/06/08 04:16:58;;;;;;;6.20;3.90;;;23.80;50.50;;;;;;5071908;28;20631;-46
2023/06/08 04:19:27;;;;;;;9.93;3.90;;;23.80;50.50;;;;;;5067477;28;20202;-46
2023/06/08 04:21:56;;;;;;;5.10;3.60;;;23.80;50.60;;;;;;5050666;28;20506;-45
2023/06/08 04:24:29;;;;;;;5.67;3.60;;;23.80;50.60;;;;;;5066213;28;20650;-45
2023/06/08 04:26:58;;;;;;;6.00;3.97;;;23.80;50.50;;;;;;5067312;28;20304;-45
2023/06/08 04:29:30;;;;;;;5.40;4.03;;;23.80;50.50;;;;;;5067719;28;20564;-45
2023/06/08 04:32:00;;;;;;;7.80;4.63;;;23.80;50.30;;;;;;5071513;28;20204;-45
2023/06/08 04:34:31;;;;;;;5.87;3.70;;;23.70;50.40;;;;;;5069462;28;20643;-45
2023/06/08 04:37:01;;;;;;;7.30;4.53;;;23.70;50.40;;;;;;5069109;28;20263;-45
2023/06/08 04:39:33;;;;;;;5.67;3.70;;;23.70;50.30;;;;;;5071712;28;20196;-46
2023/06/08 04:42:08;;;;;;;5.77;4.00;;;23.70;50.40;;;;;;5071479;28;20445;-48
2023/06/08 04:44:39;;;;;;;5.87;3.70;;;23.70;50.40;;;;;;5052790;28;20197;-46
2023/06/08 04:47:14;;;;;;;4.97;3.60;;;23.80;50.40;;;;;;5079424;28;20542;-44
2023/06/08 04:49:47;;;;;;;9.13;4.50;;;23.80;50.40;;;;;;5052194;28;20224;-44
2023/06/08 04:52:22;;;;;;;8.47;4.73;;;23.70;50.20;;;;;;5070486;28;20222;-45
2023/06/08 04:54:53;;;;;;;6.23;4.00;;;23.70;50.40;;;;;;5053624;28;20200;-45
2023/06/08 04:57:25;;;;;;;7.83;4.27;;;23.70;50.40;;;;;;5054501;28;20367;-45
2023/06/08 04:59:57;;;;;;;6.00;4.10;;;23.70;50.40;;;;;;5067305;28;20250;-45
2023/06/08 05:02:28;;;;;;;8.77;5.30;;;23.70;50.20;;;;;;5071731;28;20787;-45
2023/06/08 05:04:59;;;;;;;8.77;5.03;;;23.70;49.90;;;;;;5078582;28;20263;-45
2023/06/08 05:07:31;;;;;;;9.53;5.00;;;23.60;50.20;;;;;;5071230;28;20214;-46
2023/06/08 05:10:04;;;;;;;8.17;5.17;;;23.60;50.10;;;;;;5072973;28;20212;-45
2023/06/08 05:12:36;;;;;;;16.47;5.53;;;23.60;50.20;;;;;;5067269;28;20197;-45
2023/06/08 05:15:07;;;;;;;7.23;4.80;;;23.60;50.20;;;;;;5074516;28;20190;-45
2023/06/08 05:17:36;;;;;;;8.97;5.50;;;23.60;50.50;;;;;;5054964;28;20716;-45
2023/06/08 05:20:06;;;;;;;8.60;5.43;;;23.50;50.60;;;;;;5073444;28;20495;-44
2023/06/08 05:22:38;;;;;;;11.77;5.13;;;23.50;50.60;;;;;;5068717;28;20251;-45
2023/06/08 05:25:11;;;;;;;7.63;4.50;;;23.50;51.00;;;;;;5068188;28;20251;-44
2023/06/08 05:27:41;;;;;;;8.30;4.50;;;23.50;51.40;;;;;;5053489;28;20271;-45
2023/06/08 05:30:12;;;;;;;7.67;4.30;;;23.60;51.30;;;;;;5070481;28;20197;-45
2023/06/08 05:32:44;;;;;;;6.93;4.60;;;23.60;51.30;;;;;;5067236;28;20189;-45
2023/06/08 05:35:15;;;;;;;9.47;5.67;;;23.60;51.20;;;;;;5069527;28;20214;-44
2023/06/08 05:37:47;;;;;;;9.53;5.27;;;23.50;50.80;;;;;;5069156;28;20205;-45
2023/06/08 05:40:19;;;;;;;6.37;4.20;;;23.50;51.00;;;;;;5067929;28;20591;-43
2023/06/08 05:42:48;;;;;;;8.27;4.50;;;23.60;51.20;;;;;;5067726;28;21140;-44
2023/06/08 05:45:20;;;;;;;8.33;4.17;;;23.50;50.90;;;;;;5068275;28;20734;-44
2023/06/08 05:47:51;;;;;;;9.63;5.17;;;23.50;50.90;;;;;;5070317;28;20259;-44
2023/06/08 05:50:26;;;;;;;9.03;5.40;;;23.50;50.90;;;;;;5065196;28;20202;-44
2023/06/08 05:52:54;;;;;;;9.60;5.97;;;23.50;50.70;;;;;;5069166;28;20202;-46
2023/06/08 05:55:22;;;;;;;8.63;5.33;;;23.40;50.70;;;;;;5065218;28;20675;-46
2023/06/08 05:57:52;;;;;;;9.57;4.50;;;23.40;50.80;;;;;;5064830;28;20678;-46
2023/06/08 06:00:24;;;;;;;13.03;6.27;;;23.40;51.40;;;;;;5073084;28;20202;-44
2023/06/08 06:03:06;;;;;;;10.93;5.40;;;23.50;50.70;;;;;;5066906;28;20695;-45
2023/06/08 06:05:37;;;;;;;9.37;5.50;;;23.40;50.50;;;;;;5071456;28;20639;-44
2023/06/08 06:08:06;;;;;;;9.57;5.43;;;23.40;50.50;;;;;;5069020;28;20285;-45
2023/06/08 06:10:38;;;;;;;8.17;5.40;;;23.40;50.60;;;;;;5068117;28;20186;-43
2023/06/08 06:13:06;;;;;;;10.63;5.97;;;23.40;50.50;;;;;;5065678;28;20198;-45
2023/06/08 06:15:36;;;;;;;8.07;5.60;;;23.30;50.50;;;;;;5074352;28;20225;-44
2023/06/08 06:18:08;;;;;;;9.27;5.57;;;23.30;50.60;;;;;;5069252;28;20237;-44
2023/06/08 06:20:38;;;;;;;10.57;6.63;;;23.30;50.70;;;;;;5062220;28;20784;-44
2023/06/08 06:23:10;;;;;;;7.90;5.17;;;23.30;50.70;;;;;;5069826;28;20417;-45
2023/06/08 06:25:41;;;;;;;7.77;6.03;;;23.30;50.70;;;;;;5027517;28;20230;-46
2023/06/08 06:28:12;;;;;;;11.23;5.27;;;23.30;50.70;;;;;;5020941;28;20235;-45
2023/06/08 06:30:41;;;;;;;28.17;9.40;;;23.30;50.90;;;;;;5029009;28;20198;-45
2023/06/08 06:33:13;;;;;;;36.70;10.07;;;23.30;51.00;;;;;;5023847;28;20518;-44
2023/06/08 06:35:45;;;;;;;27.83;9.43;;;23.30;51.40;;;;;;5029340;28;20218;-45
2023/06/08 06:38:15;;;;;;;22.97;8.00;;;23.50;51.80;;;;;;5026924;28;20214;-46
2023/06/08 06:40:49;;;;;;;16.93;7.43;;;23.50;51.40;;;;;;5028636;28;20619;-44
2023/06/08 06:43:21;;;;;;;15.73;7.03;;;23.60;51.40;;;;;;5031525;28;20203;-44
2023/06/08 06:45:52;;;;;;;14.33;7.07;;;23.70;51.30;;;;;;5033395;28;20214;-44
2023/06/08 06:48:24;;;;;;;13.93;6.93;;;23.70;51.10;;;;;;5015843;28;20332;-44
2023/06/08 06:50:56;;;;;;;9.43;4.93;;;23.80;51.10;;;;;;5011799;28;20546;-44
2023/06/08 06:53:24;;;;;;;9.13;5.37;;;23.80;50.70;;;;;;5018478;28;20516;-45
2023/06/08 06:56:01;;;;;;;10.20;5.93;;;23.90;50.50;;;;;;5029138;28;20190;-45
2023/06/08 06:58:31;;;;;;;7.50;4.87;;;24.00;50.60;;;;;;5026146;28;20199;-44
2023/06/08 07:01:03;;;;;;;10.67;6.43;;;24.00;50.30;;;;;;5010564;28;20207;-44
2023/06/08 07:03:35;;;;;;;9.77;5.93;;;24.10;50.20;;;;;;5010806;28;20210;-45
2023/06/08 07:06:09;;;;;;;11.33;5.63;;;24.10;50.20;;;;;;5029897;28;20202;-45
2023/06/08 07:08:43;;;;;;;10.67;6.30;;;24.20;50.10;;;;;;5026293;28;20578;-45
2023/06/08 07:11:15;;;;;;;12.97;5.80;;;24.20;49.90;;;;;;5012721;28;20187;-45
2023/06/08 07:13:47;;;;;;;9.40;4.90;;;24.20;50.00;;;;;;5025676;28;20223;-45
2023/06/08 07:16:17;;;;;;;10.30;6.40;;;24.30;49.80;;;;;;4999666;28;20204;-44
2023/06/08 07:18:48;;;;;;;9.23;5.83;;;24.30;49.90;;;;;;5009585;28;20525;-45
2023/06/08 07:21:21;;;;;;;12.40;5.90;;;24.40;49.80;;;;;;5028997;28;20198;-45
2023/06/08 07:24:11;;;;;;;8.73;5.37;;;24.40;49.60;;;;;;5034924;28;20295;-45
2023/06/08 07:27:10;;;;;;;9.57;5.87;;;24.50;49.60;;;;;;5047189;28;20194;-46
2023/06/08 07:29:41;;;;;;;12.27;6.97;;;24.50;49.50;;;;;;5058389;28;20193;-45
2023/06/08 07:32:12;;;;;;;13.10;6.37;;;24.60;49.30;;;;;;5047157;28;20260;-46
2023/06/08 07:34:43;;;;;;;10.33;6.00;;;24.60;49.30;;;;;;5045956;28;20198;-45
2023/06/08 07:37:15;;;;;;;9.00;5.73;;;24.60;49.30;;;;;;5046082;28;20610;-46
2023/06/08 07:39:44;;;;;;;8.80;5.23;;;24.70;49.00;;;;;;5042536;28;20209;-45
2023/06/08 07:42:14;;;;;;;7.00;4.77;;;24.70;49.10;;;;;;5051829;28;20225;-46
2023/06/08 07:44:43;;;;;;;10.80;6.27;;;24.80;48.80;;;;;;5042471;28;20190;-45
2023/06/08 07:47:14;;;;;;;10.37;5.50;;;24.80;48.80;;;;;;5047805;28;20881;-45
2023/06/08 07:49:47;;;;;;;9.00;6.00;;;24.80;48.70;;;;;;5044740;28;20214;-46
2023/06/08 07:52:18;;;;;;;7.13;4.97;;;24.90;48.90;;;;;;5047527;28;20260;-46
2023/06/08 07:54:49;;;;;;;7.47;6.60;;;24.90;48.60;;;;;;5027977;28;20243;-46
2023/06/08 07:57:22;;;;;;;11.73;6.60;;;25.00;48.70;;;;;;5047505;28;20186;-47
2023/06/08 07:59:53;;;;;;;8.77;5.03;;;25.00;48.80;;;;;;5045521;28;20201;-45
2023/06/08 08:02:25;;;;;;;9.30;5.33;;;25.10;48.50;;;;;;5045843;28;20218;-46
2023/06/08 08:04:55;;;;;;;13.33;5.43;;;25.10;48.20;;;;;;5047398;28;20203;-46
2023/06/08 08:07:24;;;;;;;9.20;6.20;;;25.10;48.20;;;;;;5051841;28;20186;-46
2023/06/08 08:09:55;;;;;;;13.00;6.30;;;25.20;48.40;;;;;;5051857;28;20214;-45
2023/06/08 08:12:26;;;;;;;9.33;5.03;;;25.20;48.60;;;;;;5055921;28;20554;-46
2023/06/08 08:14:55;;;;;;;6.30;4.93;;;25.20;48.10;;;;;;5050586;28;20214;-46
2023/06/08 08:17:36;;;;;;;9.47;6.10;;;25.20;48.10;;;;;;5045239;28;20298;-45
2023/06/08 08:20:09;;;;;;;8.27;5.77;;;25.30;48.30;;;;;;5052367;28;20215;-45
2023/06/08 08:22:39;;;;;;;8.40;5.63;;;25.30;48.40;;;;;;5029998;28;20201;-44
2023/06/08 08:25:13;;;;;;;7.63;5.87;;;25.30;48.40;;;;;;5050161;28;20761;-45
2023/06/08 08:27:43;;;;;;;9.57;5.90;;;25.40;48.60;;;;;;5061912;28;20212;-45
2023/06/08 08:30:13;;;;;;;9.67;5.97;;;25.40;48.40;;;;;;5048888;28;20210;-45
2023/06/08 08:32:45;;;;;;;10.17;6.23;;;25.40;48.50;;;;;;5044664;28;20235;-45
2023/06/08 08:35:16;;;;;;;10.33;5.50;;;25.40;48.50;;;;;;5032926;28;20222;-45
2023/06/08 08:37:46;;;;;;;8.57;5.57;;;25.50;48.50;;;;;;5044485;28;20621;-46
2023/06/08 08:40:18;;;;;;;8.57;5.80;;;25.50;48.20;;;;;;5072652;28;20192;-46
2023/06/08 08:43:08;;;;;;;9.43;5.30;;;25.50;48.50;;;;;;5076274;28;20205;-45
2023/06/08 08:45:42;;;;;;;10.60;5.33;;;25.50;48.60;;;;;;5075129;28;20591;-46
2023/06/08 08:48:15;;;;;;;10.47;5.27;;;25.50;48.70;;;;;;5075232;28;20205;-45
2023/06/08 08:50:53;;;;;;;8.83;5.67;;;25.50;48.70;;;;;;5051660;28;20206;-44
2023/06/08 08:53:30;;;;;;;9.33;5.80;;;25.50;48.50;;;;;;5057829;28;20216;-44
2023/06/08 08:56:06;;;;;;;9.67;5.10;;;25.50;48.60;;;;;;5058681;28;20209;-45
2023/06/08 08:58:47;;;;;;;5.63;4.47;;;25.60;48.90;;;;;;5078752;28;20238;-45
2023/06/08 09:01:18;;;;;;;9.97;6.03;;;25.60;48.80;;;;;;5043253;28;20221;-45
2023/06/08 09:03:50;;;;;;;8.13;5.40;;;25.60;48.90;;;;;;5052701;28;20532;-46
2023/06/08 09:06:24;;;;;;;6.27;4.80;;;25.70;48.90;;;;;;5060643;28;20194;-46
2023/06/08 09:09:00;;;;;;;7.87;5.50;;;25.70;48.80;;;;;;5070838;28;20220;-46
2023/06/08 09:11:34;;;;;;;6.40;5.07;;;25.80;48.80;;;;;;5054171;28;20196;-46
2023/06/08 09:14:08;;;;;;;6.73;5.20;;;25.90;48.80;;;;;;5070414;28;20224;-46
2023/06/08 09:16:43;;;;;;;10.20;5.43;;;25.90;48.50;;;;;;5068205;28;20223;-45
2023/06/08 09:19:24;;;;;;;7.40;4.80;;;26.00;48.50;;;;;;5053242;28;20532;-45
2023/06/08 09:21:55;;;;;;;7.40;5.60;;;26.00;48.60;;;;;;5053903;28;20194;-45
2023/06/08 09:24:27;;;;;;;8.47;5.10;;;26.10;48.40;;;;;;5070308;28;20241;-45
2023/06/08 09:26:59;;;;;;;6.20;4.93;;;26.10;48.40;;;;;;5064433;28;20550;-45
2023/06/08 09:29:40;;;;;;;7.60;5.43;;;26.10;48.30;;;;;;5071130;28;20330;-45
2023/06/08 09:32:13;;;;;;;7.03;4.87;;;26.20;48.10;;;;;;5054088;28;20818;-45
2023/06/08 09:35:05;;;;;;;7.17;5.33;;;26.20;48.00;;;;;;5070015;28;20202;-45
2023/06/08 09:37:41;;;;;;;8.93;6.10;;;26.20;47.90;;;;;;5063475;28;20589;-46
2023/06/08 09:40:18;;;;;;;9.87;5.67;;;26.30;48.10;;;;;;5071318;28;20196;-45
2023/06/08 09:42:53;;;;;;;9.87;6.90;;;26.40;48.10;;;;;;5052862;28;20634;-45
2023/06/08 09:45:27;;;;;;;7.27;6.00;;;26.40;47.70;;;;;;5068528;28;20203;-45
2023/06/08 09:48:10;;;;;;;8.90;5.90;;;26.40;47.70;;;;;;5069885;28;20229;-45
2023/06/08 09:50:38;;;;;;;9.53;6.77;;;26.40;47.70;;;;;;5043605;28;20202;-45
2023/06/08 09:53:11;;;;;;;12.57;6.77;;;26.40;47.50;;;;;;5066261;28;20777;-46
2023/06/08 09:55:42;;;;;;;9.30;7.40;;;26.50;47.30;;;;;;5052297;28;20200;-45
2023/06/08 09:58:16;;;;;;;7.50;5.80;;;26.50;47.20;;;;;;5070451;28;20190;-45
2023/06/08 10:00:45;;;;;;;8.03;5.87;;;26.50;47.40;;;;;;5051119;28;20201;-46
2023/06/08 10:03:37;;;;;;;10.80;6.47;;;26.50;47.10;;;;;;5055655;28;20708;-45
2023/06/08 10:06:09;;;;;;;8.13;5.80;;;26.50;47.00;;;;;;5052816;28;20240;-45
2023/06/08 10:08:49;;;;;;;10.63;6.73;;;26.60;47.00;;;;;;5054717;28;21006;-45
2023/06/08 10:11:21;;;;;;;8.13;6.47;;;26.60;46.90;;;;;;5076002;28;20185;-44
2023/06/08 10:13:52;;;;;;;9.60;7.17;;;26.60;47.00;;;;;;5050093;28;20541;-45
2023/06/08 10:16:29;;;;;;;13.17;9.23;;;26.60;47.10;;;;;;5062902;28;20262;-45
2023/06/08 10:18:58;;;;;;;12.97;9.07;;;26.70;46.90;;;;;;5070055;28;20201;-45
2023/06/08 10:21:29;;;;;;;11.00;8.63;;;26.70;46.90;;;;;;5056707;28;20197;-45
2023/06/08 10:24:02;;;;;;;13.73;8.90;;;26.60;46.60;;;;;;5069344;28;20261;-46
2023/06/08 10:26:32;;;;;;;13.90;6.93;;;26.70;46.90;;;;;;5070295;28;20217;-46
2023/06/08 10:29:14;;;;;;;11.53;7.03;;;26.70;47.20;;;;;;5049586;28;20245;-45
2023/06/08 10:31:54;;;;;;;10.13;7.93;;;26.70;47.20;;;;;;5064078;28;20269;-45
2023/06/08 10:34:30;;;;;;;16.07;8.77;;;26.70;46.90;;;;;;5061676;28;20201;-45
2023/06/08 10:37:02;;;;;;;10.67;8.00;;;26.60;46.60;;;;;;5064476;28;20231;-45
2023/06/08 10:39:48;;;;;;;11.30;8.13;;;26.60;46.50;;;;;;5067094;28;20208;-46
2023/06/08 10:42:18;;;;;;;11.30;8.30;;;26.60;46.60;;;;;;5071401;28;20209;-44
2023/06/08 10:45:09;;;;;;;11.80;8.27;;;26.60;46.70;;;;;;5064739;28;20201;-45
2023/06/08 10:47:36;;;;;;;12.37;8.17;;;26.50;46.50;;;;;;5059373;28;20220;-45
2023/06/08 10:50:09;;;;;;;13.03;7.87;;;26.60;47.00;;;;;;5049718;28;20243;-45
2023/06/08 10:52:45;;;;;;;10.47;7.40;;;26.50;46.70;;;;;;5066810;28;20209;-45
2023/06/08 10:55:28;;;;;;;10.10;7.03;;;26.50;46.90;;;;;;5073131;28;20281;-46
2023/06/08 10:58:15;;;;;;;11.40;6.77;;;26.50;46.70;;;;;;5065708;28;20285;-46
2023/06/08 11:00:44;;;;;;;9.70;7.73;;;26.60;47.40;;;;;;5064897;28;20811;-46
2023/06/08 11:03:16;;;;;;;13.33;7.57;;;26.60;47.00;;;;;;5066189;28;20603;-47
2023/06/08 11:05:53;;;;;;;10.13;6.57;;;26.60;47.10;;;;;;5051489;28;20645;-47
2023/06/08 11:08:36;;;;;;;8.77;6.63;;;26.70;47.30;;;;;;5052306;28;20293;-46
2023/06/08 11:11:13;;;;;;;10.50;6.67;;;26.80;47.40;;;;;;5073799;28;20225;-45
2023/06/08 11:13:44;;;;;;;6.87;6.00;;;26.80;47.20;;;;;;5065810;28;20217;-45
2023/06/08 11:16:22;;;;;;;7.07;5.30;;;26.90;47.40;;;;;;5068471;28;20216;-46
2023/06/08 11:18:53;;;;;;;10.90;5.43;;;27.00;47.20;;;;;;5066573;28;20622;-46
2023/06/08 11:21:26;;;;;;;7.90;5.70;;;27.10;47.20;;;;;;5068781;28;20239;-46
2023/06/08 11:23:57;;;;;;;9.03;5.73;;;27.10;47.10;;;;;;5068846;28;20607;-46
2023/06/08 11:26:28;;;;;;;8.40;5.07;;;27.20;47.10;;;;;;5069710;28;20217;-46
2023/06/08 11:28:57;;;;;;;6.73;4.97;;;27.30;47.30;;;;;;5049543;28;20592;-46
2023/06/08 11:31:32;;;;;;;9.63;5.40;;;27.20;47.40;;;;;;5069207;28;20182;-46
2023/06/08 11:34:15;;;;;;;7.63;5.40;;;27.30;47.40;;;;;;5052409;28;20209;-45
2023/06/08 11:36:43;;;;;;;7.03;5.20;;;27.40;47.50;;;;;;5048538;28;20185;-45
2023/06/08 11:39:14;;;;;;;6.27;5.17;;;27.50;47.00;;;;;;5065431;28;20523;-46
2023/06/08 11:41:46;;;;;;;8.23;5.03;;;27.40;47.30;;;;;;5074399;28;21301;-46
2023/06/08 11:44:26;;;;;;;8.90;5.50;;;27.40;47.10;;;;;;5072785;28;20197;-46
2023/06/08 11:46:55;;;;;;;7.93;5.60;;;27.50;46.60;;;;;;5065906;28;20198;-46
2023/06/08 11:49:49;;;;;;;9.00;5.97;;;27.50;46.90;;;;;;5063724;28;20229;-46
2023/06/08 11:52:24;;;;;;;7.60;4.93;;;27.60;46.50;;;;;;5066350;28;20260;-46
2023/06/08 11:54:53;;;;;;;6.37;4.97;;;27.60;46.60;;;;;;5076779;28;20204;-45
2023/06/08 11:57:41;;;;;;;7.83;5.53;;;27.60;46.60;;;;;;5046775;28;20251;-45
2023/06/08 12:00:21;;;;;;;6.87;5.27;;;27.70;46.50;;;;;;5049172;28;20205;-45
2023/06/08 12:02:50;;;;;;;8.50;5.33;;;27.70;46.40;;;;;;5048863;28;20234;-46
2023/06/08 12:05:31;;;;;;;7.67;4.90;;;27.80;46.60;;;;;;5054919;28;20217;-46
2023/06/08 12:08:14;;;;;;;8.57;5.70;;;27.70;46.70;;;;;;5054587;28;20194;-46
2023/06/08 12:10:47;;;;;;;7.53;5.50;;;27.80;46.20;;;;;;5070706;28;20584;-45
2023/06/08 12:13:22;;;;;;;8.53;4.70;;;27.90;46.20;;;;;;5053066;28;20828;-46
2023/06/08 12:15:55;;;;;;;9.13;5.90;;;28.00;46.10;;;;;;5056062;28;20239;-46
2023/06/08 12:18:29;;;;;;;9.23;6.30;;;28.00;46.00;;;;;;5071739;28;20250;-46
2023/06/08 12:21:06;;;;;;;7.03;5.43;;;28.00;46.10;;;;;;5071896;28;20182;-46
2023/06/08 12:23:36;;;;;;;6.37;5.73;;;28.00;46.50;;;;;;5038127;28;20221;-46
2023/06/08 12:26:05;;;;;;;10.57;5.90;;;28.00;46.10;;;;;;5063071;28;20279;-45
2023/06/08 12:28:36;;;;;;;9.93;6.17;;;28.10;46.20;;;;;;5069686;28;20228;-45
2023/06/08 12:31:08;;;;;;;7.13;5.57;;;28.10;45.60;;;;;;5066035;28;20198;-46
2023/06/08 12:33:41;;;;;;;6.07;5.40;;;28.20;46.20;;;;;;5071285;28;20201;-45
2023/06/08 12:36:13;;;;;;;8.23;6.33;;;28.20;46.60;;;;;;5072841;28;20589;-45
2023/06/08 12:38:45;;;;;;;8.83;5.93;;;28.30;46.20;;;;;;5067858;28;20224;-45
2023/06/08 12:41:14;;;;;;;7.50;5.93;;;28.30;46.00;;;;;;5078521;28;20208;-44
2023/06/08 12:43:50;;;;;;;9.63;5.03;;;28.30;46.30;;;;;;5065304;28;20578;-44
2023/06/08 12:46:21;;;;;;;8.20;5.23;;;28.30;46.50;;;;;;5057789;28;20807;-46
2023/06/08 12:48:58;;;;;;;6.33;5.03;;;28.20;46.40;;;;;;5056705;28;20233;-46
2023/06/08 12:51:27;;;;;;;6.17;5.13;;;28.20;47.30;;;;;;5069019;28;20213;-47
2023/06/08 12:53:58;;;;;;;6.97;5.20;;;28.10;46.50;;;;;;5071403;28;20198;-45
2023/06/08 12:56:30;;;;;;;9.67;5.80;;;28.10;46.50;;;;;;5050623;28;20193;-46
2023/06/08 12:59:00;;;;;;;6.83;5.80;;;28.20;46.00;;;;;;5057873;28;20210;-45
2023/06/08 13:01:31;;;;;;;7.30;5.80;;;28.20;46.20;;;;;;5069025;28;20255;-44
2023/06/08 13:04:03;;;;;;;6.67;5.37;;;28.20;46.60;;;;;;5071256;28;20215;-45
2023/06/08 13:06:36;;;;;;;6.83;5.13;;;28.10;46.40;;;;;;5059844;28;20205;-45
2023/06/08 13:09:04;;;;;;;6.80;5.70;;;28.20;46.60;;;;;;5060164;28;20603;-44
2023/06/08 13:11:39;;;;;;;6.87;5.73;;;28.20;46.60;;;;;;5060006;28;20209;-45
2023/06/08 13:14:14;;;;;;;6.90;5.20;;;28.10;46.90;;;;;;5048527;28;20209;-44
2023/06/08 13:16:49;;;;;;;7.60;5.90;;;28.20;46.40;;;;;;5058376;28;20194;-44